Terminal Aerodrome Forecast
Issued by NWS

Home | Current Version | Previous Version | Graphics & Text | Print | Product List | Glossary On
Versions: 1 2 3 4 5 6 7 8 9 10 11 12 13 14 15 16 17 18
473
FTUS43 KBIS 240910 AAB
TAFDIK
TAF AMD
KDIK 240910Z 2409/2506 04010KT 1/4SM -FZRA OVC003
     FM241200 03007KT 1SM BR VCSH OVC003
     FM241400 35008KT P6SM OVC003
     FM241900 35010KT P6SM BKN015=

USA.gov is the U.S. government's official web portal to all federal, state and local government web resources and services.